sensor_id;sensor_type;location;lat;lon;timestamp;P1;durP1;ratioP1;P2;durP2;ratioP2
53881;SDS011;39794;55.782;37.452;2023-05-29T00:00:13;3.47;;;1.85;;
53881;SDS011;39794;55.782;37.452;2023-05-29T00:02:44;4.72;;;1.83;;
53881;SDS011;39794;55.782;37.452;2023-05-29T00:05:14;7.05;;;1.88;;
53881;SDS011;39794;55.782;37.452;2023-05-29T00:07:43;1.90;;;1.40;;
53881;SDS011;39794;55.782;37.452;2023-05-29T00:10:11;4.95;;;1.77;;
53881;SDS011;39794;55.782;37.452;2023-05-29T00:12:40;2.78;;;1.45;;
53881;SDS011;39794;55.782;37.452;2023-05-29T00:15:09;3.22;;;1.83;;
53881;SDS011;39794;55.782;37.452;2023-05-29T00:17:39;7.72;;;2.20;;
53881;SDS011;39794;55.782;37.452;2023-05-29T00:20:12;4.07;;;1.83;;
53881;SDS011;39794;55.782;37.452;2023-05-29T00:22:40;4.85;;;1.70;;
53881;SDS011;39794;55.782;37.452;2023-05-29T00:25:09;3.80;;;1.60;;
53881;SDS011;39794;55.782;37.452;2023-05-29T00:27:38;5.53;;;2.08;;
53881;SDS011;39794;55.782;37.452;2023-05-29T00:30:07;3.25;;;1.80;;
53881;SDS011;39794;55.782;37.452;2023-05-29T00:32:36;4.22;;;2.10;;
53881;SDS011;39794;55.782;37.452;2023-05-29T00:35:05;3.25;;;1.80;;
53881;SDS011;39794;55.782;37.452;2023-05-29T00:37:37;5.00;;;1.80;;
53881;SDS011;39794;55.782;37.452;2023-05-29T00:40:06;4.57;;;1.98;;
53881;SDS011;39794;55.782;37.452;2023-05-29T00:42:36;4.88;;;1.40;;
53881;SDS011;39794;55.782;37.452;2023-05-29T00:45:05;3.33;;;1.73;;
53881;SDS011;39794;55.782;37.452;2023-05-29T00:47:34;5.15;;;1.80;;
53881;SDS011;39794;55.782;37.452;2023-05-29T00:50:03;3.83;;;1.70;;
53881;SDS011;39794;55.782;37.452;2023-05-29T00:52:33;4.13;;;2.00;;
53881;SDS011;39794;55.782;37.452;2023-05-29T00:55:03;2.97;;;1.70;;
53881;SDS011;39794;55.782;37.452;2023-05-29T00:57:36;3.75;;;2.00;;
53881;SDS011;39794;55.782;37.452;2023-05-29T01:00:07;3.20;;;1.90;;
53881;SDS011;39794;55.782;37.452;2023-05-29T01:02:43;3.08;;;1.60;;
53881;SDS011;39794;55.782;37.452;2023-05-29T01:05:15;4.82;;;1.80;;
53881;SDS011;39794;55.782;37.452;2023-05-29T01:07:46;5.07;;;1.63;;
53881;SDS011;39794;55.782;37.452;2023-05-29T01:10:17;4.75;;;2.00;;
53881;SDS011;39794;55.782;37.452;2023-05-29T01:12:47;8.00;;;2.05;;
53881;SDS011;39794;55.782;37.452;2023-05-29T01:15:21;3.10;;;1.92;;
53881;SDS011;39794;55.782;37.452;2023-05-29T01:18:00;3.63;;;1.67;;
53881;SDS011;39794;55.782;37.452;2023-05-29T01:20:40;3.25;;;1.90;;
53881;SDS011;39794;55.782;37.452;2023-05-29T01:26:15;6.10;;;2.03;;
53881;SDS011;39794;55.782;37.452;2023-05-29T01:28:55;2.92;;;1.88;;
53881;SDS011;39794;55.782;37.452;2023-05-29T01:33:58;2.88;;;1.30;;
53881;SDS011;39794;55.782;37.452;2023-05-29T01:36:28;2.97;;;1.73;;
53881;SDS011;39794;55.782;37.452;2023-05-29T01:38:57;2.47;;;1.48;;
53881;SDS011;39794;55.782;37.452;2023-05-29T01:41:26;5.05;;;1.60;;
53881;SDS011;39794;55.782;37.452;2023-05-29T01:43:56;4.63;;;1.70;;
53881;SDS011;39794;55.782;37.452;2023-05-29T01:46:26;6.20;;;2.30;;
53881;SDS011;39794;55.782;37.452;2023-05-29T01:48:56;3.15;;;1.75;;
53881;SDS011;39794;55.782;37.452;2023-05-29T01:51:25;3.58;;;2.00;;
53881;SDS011;39794;55.782;37.452;2023-05-29T01:53:53;3.17;;;1.80;;
53881;SDS011;39794;55.782;37.452;2023-05-29T01:56:25;4.70;;;1.90;;
53881;SDS011;39794;55.782;37.452;2023-05-29T01:58:55;2.17;;;1.52;;
53881;SDS011;39794;55.782;37.452;2023-05-29T02:01:25;5.72;;;2.00;;
53881;SDS011;39794;55.782;37.452;2023-05-29T02:07:40;2.13;;;1.40;;
53881;SDS011;39794;55.782;37.452;2023-05-29T02:10:10;3.58;;;1.60;;
53881;SDS011;39794;55.782;37.452;2023-05-29T02:12:39;2.45;;;1.83;;
53881;SDS011;39794;55.782;37.452;2023-05-29T02:15:10;2.67;;;1.45;;
53881;SDS011;39794;55.782;37.452;2023-05-29T02:17:39;2.25;;;1.48;;
53881;SDS011;39794;55.782;37.452;2023-05-29T02:20:12;3.88;;;2.00;;
53881;SDS011;39794;55.782;37.452;2023-05-29T02:22:41;3.60;;;1.77;;
53881;SDS011;39794;55.782;37.452;2023-05-29T02:25:10;3.88;;;1.58;;
53881;SDS011;39794;55.782;37.452;2023-05-29T02:27:38;2.42;;;1.63;;
53881;SDS011;39794;55.782;37.452;2023-05-29T02:30:07;4.13;;;1.80;;
53881;SDS011;39794;55.782;37.452;2023-05-29T02:32:38;6.93;;;1.90;;
53881;SDS011;39794;55.782;37.452;2023-05-29T02:35:08;4.70;;;1.92;;
53881;SDS011;39794;55.782;37.452;2023-05-29T02:37:40;1.88;;;1.40;;
53881;SDS011;39794;55.782;37.452;2023-05-29T02:40:09;4.95;;;1.75;;
53881;SDS011;39794;55.782;37.452;2023-05-29T02:42:39;3.95;;;1.80;;
53881;SDS011;39794;55.782;37.452;2023-05-29T02:45:08;3.78;;;2.15;;
53881;SDS011;39794;55.782;37.452;2023-05-29T02:47:39;3.28;;;1.92;;
53881;SDS011;39794;55.782;37.452;2023-05-29T02:50:08;6.15;;;2.20;;
53881;SDS011;39794;55.782;37.452;2023-05-29T02:52:37;3.30;;;2.15;;
53881;SDS011;39794;55.782;37.452;2023-05-29T02:55:08;6.55;;;2.00;;
53881;SDS011;39794;55.782;37.452;2023-05-29T02:57:37;4.38;;;2.20;;
53881;SDS011;39794;55.782;37.452;2023-05-29T03:00:07;6.82;;;1.98;;
53881;SDS011;39794;55.782;37.452;2023-05-29T03:02:38;3.63;;;2.50;;
53881;SDS011;39794;55.782;37.452;2023-05-29T03:05:07;5.60;;;1.70;;
53881;SDS011;39794;55.782;37.452;2023-05-29T03:07:36;8.15;;;3.00;;
53881;SDS011;39794;55.782;37.452;2023-05-29T03:10:05;2.80;;;1.70;;
53881;SDS011;39794;55.782;37.452;2023-05-29T03:12:35;3.80;;;1.90;;
53881;SDS011;39794;55.782;37.452;2023-05-29T03:15:03;4.20;;;1.90;;
53881;SDS011;39794;55.782;37.452;2023-05-29T03:17:33;5.88;;;2.20;;
53881;SDS011;39794;55.782;37.452;2023-05-29T03:20:05;4.82;;;2.05;;
53881;SDS011;39794;55.782;37.452;2023-05-29T03:22:35;4.28;;;2.13;;
53881;SDS011;39794;55.782;37.452;2023-05-29T03:25:05;6.40;;;2.17;;
53881;SDS011;39794;55.782;37.452;2023-05-29T03:27:36;6.50;;;2.38;;
53881;SDS011;39794;55.782;37.452;2023-05-29T03:30:10;4.85;;;2.45;;
53881;SDS011;39794;55.782;37.452;2023-05-29T03:32:39;3.90;;;1.88;;
53881;SDS011;39794;55.782;37.452;2023-05-29T03:35:10;3.90;;;1.90;;
53881;SDS011;39794;55.782;37.452;2023-05-29T03:37:42;4.60;;;1.60;;
53881;SDS011;39794;55.782;37.452;2023-05-29T03:40:11;4.30;;;2.17;;
53881;SDS011;39794;55.782;37.452;2023-05-29T03:42:41;3.38;;;2.25;;
53881;SDS011;39794;55.782;37.452;2023-05-29T03:45:11;4.10;;;2.13;;
53881;SDS011;39794;55.782;37.452;2023-05-29T03:47:40;3.47;;;1.73;;
53881;SDS011;39794;55.782;37.452;2023-05-29T03:50:10;7.60;;;2.33;;
53881;SDS011;39794;55.782;37.452;2023-05-29T03:52:43;6.87;;;2.77;;
53881;SDS011;39794;55.782;37.452;2023-05-29T03:55:12;2.38;;;1.98;;
53881;SDS011;39794;55.782;37.452;2023-05-29T03:57:43;5.47;;;2.25;;
53881;SDS011;39794;55.782;37.452;2023-05-29T04:00:13;4.60;;;1.73;;
53881;SDS011;39794;55.782;37.452;2023-05-29T04:02:46;4.10;;;1.70;;
53881;SDS011;39794;55.782;37.452;2023-05-29T04:05:17;4.05;;;2.17;;
53881;SDS011;39794;55.782;37.452;2023-05-29T04:07:46;5.05;;;2.00;;
53881;SDS011;39794;55.782;37.452;2023-05-29T04:10:14;3.42;;;1.83;;
53881;SDS011;39794;55.782;37.452;2023-05-29T04:12:43;5.20;;;1.98;;
53881;SDS011;39794;55.782;37.452;2023-05-29T04:15:12;4.65;;;1.90;;
53881;SDS011;39794;55.782;37.452;2023-05-29T04:17:40;11.18;;;2.22;;
53881;SDS011;39794;55.782;37.452;2023-05-29T04:20:10;3.53;;;2.22;;
53881;SDS011;39794;55.782;37.452;2023-05-29T04:22:41;3.67;;;2.08;;
53881;SDS011;39794;55.782;37.452;2023-05-29T04:25:09;7.93;;;2.22;;
53881;SDS011;39794;55.782;37.452;2023-05-29T04:27:38;3.22;;;1.58;;
53881;SDS011;39794;55.782;37.452;2023-05-29T04:30:09;2.92;;;1.77;;
53881;SDS011;39794;55.782;37.452;2023-05-29T04:32:45;5.05;;;1.58;;
53881;SDS011;39794;55.782;37.452;2023-05-29T04:35:15;3.55;;;1.80;;
53881;SDS011;39794;55.782;37.452;2023-05-29T04:37:53;3.28;;;1.83;;
53881;SDS011;39794;55.782;37.452;2023-05-29T04:40:26;2.75;;;1.77;;
53881;SDS011;39794;55.782;37.452;2023-05-29T04:42:56;4.20;;;1.80;;
53881;SDS011;39794;55.782;37.452;2023-05-29T04:45:32;5.57;;;1.75;;
53881;SDS011;39794;55.782;37.452;2023-05-29T04:48:04;5.40;;;1.83;;
53881;SDS011;39794;55.782;37.452;2023-05-29T04:50:32;5.97;;;1.90;;
53881;SDS011;39794;55.782;37.452;2023-05-29T04:53:05;2.88;;;1.63;;
53881;SDS011;39794;55.782;37.452;2023-05-29T04:55:33;4.53;;;1.73;;
53881;SDS011;39794;55.782;37.452;2023-05-29T04:58:02;5.82;;;2.30;;
53881;SDS011;39794;55.782;37.452;2023-05-29T05:00:33;3.30;;;1.98;;
53881;SDS011;39794;55.782;37.452;2023-05-29T05:03:03;5.82;;;2.08;;
53881;SDS011;39794;55.782;37.452;2023-05-29T05:05:33;3.58;;;2.05;;
53881;SDS011;39794;55.782;37.452;2023-05-29T05:08:01;4.70;;;2.42;;
53881;SDS011;39794;55.782;37.452;2023-05-29T05:10:31;4.20;;;2.03;;
53881;SDS011;39794;55.782;37.452;2023-05-29T05:13:00;3.63;;;2.30;;
53881;SDS011;39794;55.782;37.452;2023-05-29T05:15:30;5.15;;;2.10;;
53881;SDS011;39794;55.782;37.452;2023-05-29T05:17:59;5.43;;;2.05;;
53881;SDS011;39794;55.782;37.452;2023-05-29T05:20:28;4.03;;;2.65;;
53881;SDS011;39794;55.782;37.452;2023-05-29T05:22:59;3.80;;;2.03;;
53881;SDS011;39794;55.782;37.452;2023-05-29T05:25:29;3.65;;;1.80;;
53881;SDS011;39794;55.782;37.452;2023-05-29T05:28:00;6.00;;;2.05;;
53881;SDS011;39794;55.782;37.452;2023-05-29T05:30:31;4.72;;;1.92;;
53881;SDS011;39794;55.782;37.452;2023-05-29T05:33:00;3.80;;;2.50;;
53881;SDS011;39794;55.782;37.452;2023-05-29T05:35:29;5.15;;;1.80;;
53881;SDS011;39794;55.782;37.452;2023-05-29T05:37:57;7.28;;;1.90;;
53881;SDS011;39794;55.782;37.452;2023-05-29T05:40:28;4.22;;;2.03;;
53881;SDS011;39794;55.782;37.452;2023-05-29T05:43:06;6.97;;;1.90;;
53881;SDS011;39794;55.782;37.452;2023-05-29T05:45:56;7.03;;;1.95;;
53881;SDS011;39794;55.782;37.452;2023-05-29T05:48:24;8.25;;;2.50;;
53881;SDS011;39794;55.782;37.452;2023-05-29T05:50:53;4.97;;;1.90;;
53881;SDS011;39794;55.782;37.452;2023-05-29T05:53:23;8.60;;;2.35;;
53881;SDS011;39794;55.782;37.452;2023-05-29T05:55:51;3.92;;;1.60;;
53881;SDS011;39794;55.782;37.452;2023-05-29T05:58:22;3.83;;;1.65;;
53881;SDS011;39794;55.782;37.452;2023-05-29T06:00:50;5.03;;;1.88;;
53881;SDS011;39794;55.782;37.452;2023-05-29T06:03:20;6.25;;;1.65;;
53881;SDS011;39794;55.782;37.452;2023-05-29T06:06:11;4.25;;;1.90;;
53881;SDS011;39794;55.782;37.452;2023-05-29T06:08:45;4.40;;;1.33;;
53881;SDS011;39794;55.782;37.452;2023-05-29T06:11:17;4.78;;;2.10;;
53881;SDS011;39794;55.782;37.452;2023-05-29T06:13:48;10.75;;;1.90;;
53881;SDS011;39794;55.782;37.452;2023-05-29T06:16:27;4.45;;;1.83;;
53881;SDS011;39794;55.782;37.452;2023-05-29T06:18:56;3.67;;;1.52;;
53881;SDS011;39794;55.782;37.452;2023-05-29T06:21:26;3.80;;;1.30;;
53881;SDS011;39794;55.782;37.452;2023-05-29T06:23:56;2.60;;;1.33;;
53881;SDS011;39794;55.782;37.452;2023-05-29T06:26:26;3.75;;;1.40;;
53881;SDS011;39794;55.782;37.452;2023-05-29T06:28:59;3.85;;;1.38;;
53881;SDS011;39794;55.782;37.452;2023-05-29T06:31:28;2.95;;;1.08;;
53881;SDS011;39794;55.782;37.452;2023-05-29T06:33:59;2.40;;;1.20;;
53881;SDS011;39794;55.782;37.452;2023-05-29T06:36:28;1.73;;;1.00;;
53881;SDS011;39794;55.782;37.452;2023-05-29T06:38:58;2.53;;;1.25;;
53881;SDS011;39794;55.782;37.452;2023-05-29T06:41:31;3.00;;;1.27;;
53881;SDS011;39794;55.782;37.452;2023-05-29T06:44:01;4.30;;;1.00;;
53881;SDS011;39794;55.782;37.452;2023-05-29T06:46:30;2.63;;;0.70;;
53881;SDS011;39794;55.782;37.452;2023-05-29T06:49:02;1.33;;;0.75;;
53881;SDS011;39794;55.782;37.452;2023-05-29T06:51:33;1.95;;;0.95;;
53881;SDS011;39794;55.782;37.452;2023-05-29T06:54:20;1.38;;;0.73;;
53881;SDS011;39794;55.782;37.452;2023-05-29T06:56:49;2.28;;;0.80;;
53881;SDS011;39794;55.782;37.452;2023-05-29T06:59:37;3.17;;;0.70;;
53881;SDS011;39794;55.782;37.452;2023-05-29T07:02:07;3.72;;;0.68;;
53881;SDS011;39794;55.782;37.452;2023-05-29T07:04:38;2.50;;;0.73;;
53881;SDS011;39794;55.782;37.452;2023-05-29T07:07:07;3.50;;;1.00;;
53881;SDS011;39794;55.782;37.452;2023-05-29T07:09:36;4.88;;;0.88;;
53881;SDS011;39794;55.782;37.452;2023-05-29T07:12:06;1.83;;;0.80;;
53881;SDS011;39794;55.782;37.452;2023-05-29T07:14:37;2.03;;;0.73;;
53881;SDS011;39794;55.782;37.452;2023-05-29T07:17:09;2.10;;;0.85;;
53881;SDS011;39794;55.782;37.452;2023-05-29T07:19:37;2.15;;;0.60;;
53881;SDS011;39794;55.782;37.452;2023-05-29T07:22:06;1.08;;;0.70;;
53881;SDS011;39794;55.782;37.452;2023-05-29T07:24:35;4.55;;;0.73;;
53881;SDS011;39794;55.782;37.452;2023-05-29T07:27:06;1.05;;;0.70;;
53881;SDS011;39794;55.782;37.452;2023-05-29T07:29:34;1.08;;;0.77;;
53881;SDS011;39794;55.782;37.452;2023-05-29T07:32:07;1.02;;;0.80;;
53881;SDS011;39794;55.782;37.452;2023-05-29T07:34:37;1.15;;;0.52;;
53881;SDS011;39794;55.782;37.452;2023-05-29T07:37:07;2.92;;;1.10;;
53881;SDS011;39794;55.782;37.452;2023-05-29T07:39:38;2.25;;;0.75;;
53881;SDS011;39794;55.782;37.452;2023-05-29T07:42:30;1.33;;;0.90;;
53881;SDS011;39794;55.782;37.452;2023-05-29T07:44:59;4.00;;;1.20;;
53881;SDS011;39794;55.782;37.452;2023-05-29T07:47:31;1.67;;;1.00;;
53881;SDS011;39794;55.782;37.452;2023-05-29T07:50:00;1.50;;;0.70;;
53881;SDS011;39794;55.782;37.452;2023-05-29T07:52:31;4.53;;;0.98;;
53881;SDS011;39794;55.782;37.452;2023-05-29T07:54:59;1.65;;;0.88;;
53881;SDS011;39794;55.782;37.452;2023-05-29T07:57:29;4.35;;;1.13;;
53881;SDS011;39794;55.782;37.452;2023-05-29T08:00:02;1.48;;;0.70;;
53881;SDS011;39794;55.782;37.452;2023-05-29T08:02:46;3.67;;;1.00;;
53881;SDS011;39794;55.782;37.452;2023-05-29T08:05:38;2.35;;;0.93;;
53881;SDS011;39794;55.782;37.452;2023-05-29T08:08:11;8.35;;;1.17;;
53881;SDS011;39794;55.782;37.452;2023-05-29T08:10:40;4.03;;;1.10;;
53881;SDS011;39794;55.782;37.452;2023-05-29T08:13:09;2.80;;;1.65;;
53881;SDS011;39794;55.782;37.452;2023-05-29T08:15:39;3.25;;;1.00;;
53881;SDS011;39794;55.782;37.452;2023-05-29T08:18:09;1.90;;;0.82;;
53881;SDS011;39794;55.782;37.452;2023-05-29T08:20:39;3.55;;;1.00;;
53881;SDS011;39794;55.782;37.452;2023-05-29T08:23:10;2.03;;;0.70;;
53881;SDS011;39794;55.782;37.452;2023-05-29T08:25:38;1.38;;;0.80;;
53881;SDS011;39794;55.782;37.452;2023-05-29T08:28:10;6.95;;;0.90;;
53881;SDS011;39794;55.782;37.452;2023-05-29T08:30:39;1.30;;;0.70;;
53881;SDS011;39794;55.782;37.452;2023-05-29T08:33:09;1.50;;;0.77;;
53881;SDS011;39794;55.782;37.452;2023-05-29T08:35:38;3.35;;;0.90;;
53881;SDS011;39794;55.782;37.452;2023-05-29T08:38:07;0.85;;;0.70;;
53881;SDS011;39794;55.782;37.452;2023-05-29T08:40:36;4.35;;;1.10;;
53881;SDS011;39794;55.782;37.452;2023-05-29T08:43:08;4.28;;;1.08;;
53881;SDS011;39794;55.782;37.452;2023-05-29T08:45:40;2.42;;;0.82;;
53881;SDS011;39794;55.782;37.452;2023-05-29T08:48:12;1.33;;;0.70;;
53881;SDS011;39794;55.782;37.452;2023-05-29T08:50:44;2.33;;;0.68;;
53881;SDS011;39794;55.782;37.452;2023-05-29T08:53:16;3.03;;;0.65;;
53881;SDS011;39794;55.782;37.452;2023-05-29T08:55:46;3.38;;;0.77;;
53881;SDS011;39794;55.782;37.452;2023-05-29T08:58:17;2.15;;;0.90;;
53881;SDS011;39794;55.782;37.452;2023-05-29T09:00:52;2.22;;;0.80;;
53881;SDS011;39794;55.782;37.452;2023-05-29T09:03:24;1.52;;;0.70;;
53881;SDS011;39794;55.782;37.452;2023-05-29T09:05:57;1.35;;;0.70;;
53881;SDS011;39794;55.782;37.452;2023-05-29T09:08:26;2.45;;;0.70;;
53881;SDS011;39794;55.782;37.452;2023-05-29T09:10:55;2.17;;;0.75;;
53881;SDS011;39794;55.782;37.452;2023-05-29T09:13:25;2.30;;;0.95;;
53881;SDS011;39794;55.782;37.452;2023-05-29T09:15:57;1.40;;;0.77;;
53881;SDS011;39794;55.782;37.452;2023-05-29T09:18:30;0.98;;;0.65;;
53881;SDS011;39794;55.782;37.452;2023-05-29T09:20:59;1.58;;;1.00;;
53881;SDS011;39794;55.782;37.452;2023-05-29T09:23:29;1.45;;;0.98;;
53881;SDS011;39794;55.782;37.452;2023-05-29T09:25:57;2.50;;;1.10;;
53881;SDS011;39794;55.782;37.452;2023-05-29T09:28:26;2.67;;;0.80;;
53881;SDS011;39794;55.782;37.452;2023-05-29T09:30:58;1.85;;;0.80;;
53881;SDS011;39794;55.782;37.452;2023-05-29T09:33:27;1.92;;;0.80;;
53881;SDS011;39794;55.782;37.452;2023-05-29T09:35:57;1.90;;;0.80;;
53881;SDS011;39794;55.782;37.452;2023-05-29T09:38:28;5.07;;;1.00;;
53881;SDS011;39794;55.782;37.452;2023-05-29T09:41:20;1.20;;;0.75;;
53881;SDS011;39794;55.782;37.452;2023-05-29T09:43:50;1.70;;;0.80;;
53881;SDS011;39794;55.782;37.452;2023-05-29T09:46:20;2.05;;;0.70;;
53881;SDS011;39794;55.782;37.452;2023-05-29T09:48:50;1.40;;;0.77;;
53881;SDS011;39794;55.782;37.452;2023-05-29T09:51:21;2.28;;;0.80;;
53881;SDS011;39794;55.782;37.452;2023-05-29T09:53:53;4.72;;;0.85;;
53881;SDS011;39794;55.782;37.452;2023-05-29T09:56:23;3.15;;;0.90;;
53881;SDS011;39794;55.782;37.452;2023-05-29T09:58:55;1.70;;;0.60;;
53881;SDS011;39794;55.782;37.452;2023-05-29T10:01:24;1.63;;;0.60;;
53881;SDS011;39794;55.782;37.452;2023-05-29T10:03:54;1.25;;;0.85;;
53881;SDS011;39794;55.782;37.452;2023-05-29T10:06:24;1.30;;;0.70;;
53881;SDS011;39794;55.782;37.452;2023-05-29T10:08:54;3.92;;;1.00;;
53881;SDS011;39794;55.782;37.452;2023-05-29T10:11:24;1.48;;;0.70;;
53881;SDS011;39794;55.782;37.452;2023-05-29T10:13:56;1.70;;;0.90;;
53881;SDS011;39794;55.782;37.452;2023-05-29T10:16:25;1.38;;;0.70;;
53881;SDS011;39794;55.782;37.452;2023-05-29T10:18:56;3.92;;;0.90;;
53881;SDS011;39794;55.782;37.452;2023-05-29T10:21:28;1.08;;;0.77;;
53881;SDS011;39794;55.782;37.452;2023-05-29T10:23:58;2.42;;;0.70;;
53881;SDS011;39794;55.782;37.452;2023-05-29T10:26:28;4.40;;;1.00;;
53881;SDS011;39794;55.782;37.452;2023-05-29T10:28:59;1.63;;;1.08;;
53881;SDS011;39794;55.782;37.452;2023-05-29T10:31:37;2.75;;;1.10;;
53881;SDS011;39794;55.782;37.452;2023-05-29T10:34:18;2.65;;;0.90;;
53881;SDS011;39794;55.782;37.452;2023-05-29T10:36:56;0.93;;;0.73;;
53881;SDS011;39794;55.782;37.452;2023-05-29T10:39:30;2.65;;;1.10;;
53881;SDS011;39794;55.782;37.452;2023-05-29T10:42:07;1.08;;;0.75;;
53881;SDS011;39794;55.782;37.452;2023-05-29T10:51:26;2.53;;;0.75;;
53881;SDS011;39794;55.782;37.452;2023-05-29T10:53:57;1.65;;;0.90;;
53881;SDS011;39794;55.782;37.452;2023-05-29T10:56:28;3.97;;;0.70;;
53881;SDS011;39794;55.782;37.452;2023-05-29T10:58:58;3.20;;;0.80;;
53881;SDS011;39794;55.782;37.452;2023-05-29T11:01:29;2.97;;;0.80;;
53881;SDS011;39794;55.782;37.452;2023-05-29T11:07:01;1.75;;;0.85;;
53881;SDS011;39794;55.782;37.452;2023-05-29T11:09:35;2.10;;;0.80;;
53881;SDS011;39794;55.782;37.452;2023-05-29T11:15:02;1.20;;;0.63;;
53881;SDS011;39794;55.782;37.452;2023-05-29T11:17:43;2.85;;;0.77;;
53881;SDS011;39794;55.782;37.452;2023-05-29T11:20:17;3.38;;;0.90;;
53881;SDS011;39794;55.782;37.452;2023-05-29T11:23:02;2.97;;;0.90;;
53881;SDS011;39794;55.782;37.452;2023-05-29T11:25:36;2.03;;;0.90;;
53881;SDS011;39794;55.782;37.452;2023-05-29T11:28:08;1.00;;;0.70;;
53881;SDS011;39794;55.782;37.452;2023-05-29T11:30:42;2.70;;;0.77;;
53881;SDS011;39794;55.782;37.452;2023-05-29T11:33:24;1.55;;;0.80;;
53881;SDS011;39794;55.782;37.452;2023-05-29T11:35:55;1.50;;;0.90;;
53881;SDS011;39794;55.782;37.452;2023-05-29T11:38:25;2.67;;;1.13;;
53881;SDS011;39794;55.782;37.452;2023-05-29T11:40:57;2.15;;;0.90;;
53881;SDS011;39794;55.782;37.452;2023-05-29T11:43:30;3.30;;;0.98;;
53881;SDS011;39794;55.782;37.452;2023-05-29T11:45:59;3.08;;;1.00;;
53881;SDS011;39794;55.782;37.452;2023-05-29T11:48:28;2.22;;;1.00;;
53881;SDS011;39794;55.782;37.452;2023-05-29T11:50:57;4.53;;;0.80;;
53881;SDS011;39794;55.782;37.452;2023-05-29T11:53:33;1.02;;;0.90;;
53881;SDS011;39794;55.782;37.452;2023-05-29T11:56:09;2.13;;;0.73;;
53881;SDS011;39794;55.782;37.452;2023-05-29T11:58:38;2.05;;;1.25;;
53881;SDS011;39794;55.782;37.452;2023-05-29T12:01:07;1.52;;;0.68;;
53881;SDS011;39794;55.782;37.452;2023-05-29T12:03:37;1.42;;;0.90;;
53881;SDS011;39794;55.782;37.452;2023-05-29T12:06:08;2.00;;;1.00;;
53881;SDS011;39794;55.782;37.452;2023-05-29T12:08:37;5.25;;;1.20;;
53881;SDS011;39794;55.782;37.452;2023-05-29T12:11:06;2.42;;;0.80;;
53881;SDS011;39794;55.782;37.452;2023-05-29T12:13:36;2.13;;;0.73;;
53881;SDS011;39794;55.782;37.452;2023-05-29T12:16:06;3.05;;;1.55;;
53881;SDS011;39794;55.782;37.452;2023-05-29T12:18:36;1.90;;;0.70;;
53881;SDS011;39794;55.782;37.452;2023-05-29T12:21:04;2.65;;;0.90;;
53881;SDS011;39794;55.782;37.452;2023-05-29T12:23:34;1.50;;;0.77;;
53881;SDS011;39794;55.782;37.452;2023-05-29T12:26:02;2.55;;;1.10;;
53881;SDS011;39794;55.782;37.452;2023-05-29T12:28:31;2.10;;;0.73;;
53881;SDS011;39794;55.782;37.452;2023-05-29T12:31:01;1.15;;;0.80;;
53881;SDS011;39794;55.782;37.452;2023-05-29T12:33:30;1.73;;;0.82;;
53881;SDS011;39794;55.782;37.452;2023-05-29T12:36:04;1.65;;;0.70;;
53881;SDS011;39794;55.782;37.452;2023-05-29T12:38:41;2.65;;;1.30;;
53881;SDS011;39794;55.782;37.452;2023-05-29T12:41:24;1.83;;;1.35;;
53881;SDS011;39794;55.782;37.452;2023-05-29T12:43:54;1.65;;;1.10;;
53881;SDS011;39794;55.782;37.452;2023-05-29T12:46:25;2.97;;;0.85;;
53881;SDS011;39794;55.782;37.452;2023-05-29T12:49:11;0.88;;;0.80;;
53881;SDS011;39794;55.782;37.452;2023-05-29T12:51:40;1.42;;;0.63;;
53881;SDS011;39794;55.782;37.452;2023-05-29T12:54:10;1.67;;;0.80;;
53881;SDS011;39794;55.782;37.452;2023-05-29T12:56:38;4.50;;;1.63;;
53881;SDS011;39794;55.782;37.452;2023-05-29T12:59:07;2.35;;;1.00;;
53881;SDS011;39794;55.782;37.452;2023-05-29T13:01:38;5.18;;;0.90;;
53881;SDS011;39794;55.782;37.452;2023-05-29T13:04:07;2.45;;;1.00;;
53881;SDS011;39794;55.782;37.452;2023-05-29T13:06:39;1.45;;;0.90;;
53881;SDS011;39794;55.782;37.452;2023-05-29T13:09:08;5.32;;;1.23;;
53881;SDS011;39794;55.782;37.452;2023-05-29T13:11:37;1.10;;;0.70;;
53881;SDS011;39794;55.782;37.452;2023-05-29T13:14:08;3.33;;;0.88;;
53881;SDS011;39794;55.782;37.452;2023-05-29T13:16:38;1.88;;;0.80;;
53881;SDS011;39794;55.782;37.452;2023-05-29T13:19:07;1.75;;;0.80;;
53881;SDS011;39794;55.782;37.452;2023-05-29T13:21:36;1.38;;;0.77;;
53881;SDS011;39794;55.782;37.452;2023-05-29T13:24:05;3.88;;;1.08;;
53881;SDS011;39794;55.782;37.452;2023-05-29T13:26:37;1.35;;;0.80;;
53881;SDS011;39794;55.782;37.452;2023-05-29T13:29:06;3.45;;;0.98;;
53881;SDS011;39794;55.782;37.452;2023-05-29T13:31:35;1.85;;;1.00;;
53881;SDS011;39794;55.782;37.452;2023-05-29T13:34:05;1.52;;;0.90;;
53881;SDS011;39794;55.782;37.452;2023-05-29T13:36:33;4.05;;;1.10;;
53881;SDS011;39794;55.782;37.452;2023-05-29T13:39:03;5.88;;;1.02;;
53881;SDS011;39794;55.782;37.452;2023-05-29T13:41:33;4.13;;;0.88;;
53881;SDS011;39794;55.782;37.452;2023-05-29T13:44:02;1.33;;;1.05;;
53881;SDS011;39794;55.782;37.452;2023-05-29T13:46:31;1.48;;;0.90;;
53881;SDS011;39794;55.782;37.452;2023-05-29T13:49:02;4.95;;;1.05;;
53881;SDS011;39794;55.782;37.452;2023-05-29T13:51:34;3.90;;;1.00;;
53881;SDS011;39794;55.782;37.452;2023-05-29T13:54:03;1.42;;;0.70;;
53881;SDS011;39794;55.782;37.452;2023-05-29T13:56:32;1.85;;;0.63;;
53881;SDS011;39794;55.782;37.452;2023-05-29T13:59:01;5.97;;;1.00;;
53881;SDS011;39794;55.782;37.452;2023-05-29T14:01:33;3.78;;;1.08;;
53881;SDS011;39794;55.782;37.452;2023-05-29T14:04:01;1.33;;;0.82;;
53881;SDS011;39794;55.782;37.452;2023-05-29T14:06:33;2.83;;;0.73;;
53881;SDS011;39794;55.782;37.452;2023-05-29T14:09:02;2.13;;;0.93;;
53881;SDS011;39794;55.782;37.452;2023-05-29T14:11:36;2.38;;;0.95;;
53881;SDS011;39794;55.782;37.452;2023-05-29T14:14:05;2.92;;;0.80;;
53881;SDS011;39794;55.782;37.452;2023-05-29T14:16:37;1.60;;;0.80;;
53881;SDS011;39794;55.782;37.452;2023-05-29T14:19:06;1.52;;;0.73;;
53881;SDS011;39794;55.782;37.452;2023-05-29T14:21:41;1.63;;;0.70;;
53881;SDS011;39794;55.782;37.452;2023-05-29T14:24:10;1.77;;;0.70;;
53881;SDS011;39794;55.782;37.452;2023-05-29T14:26:39;2.17;;;0.80;;
53881;SDS011;39794;55.782;37.452;2023-05-29T14:29:10;1.83;;;0.80;;
53881;SDS011;39794;55.782;37.452;2023-05-29T14:31:42;2.55;;;0.98;;
53881;SDS011;39794;55.782;37.452;2023-05-29T14:34:11;2.28;;;1.13;;
53881;SDS011;39794;55.782;37.452;2023-05-29T14:36:42;4.22;;;0.90;;
53881;SDS011;39794;55.782;37.452;2023-05-29T14:39:12;1.95;;;0.85;;
53881;SDS011;39794;55.782;37.452;2023-05-29T14:41:40;3.85;;;0.93;;
53881;SDS011;39794;55.782;37.452;2023-05-29T14:44:10;1.00;;;0.70;;
53881;SDS011;39794;55.782;37.452;2023-05-29T14:46:39;2.50;;;0.80;;
53881;SDS011;39794;55.782;37.452;2023-05-29T14:49:10;3.90;;;0.73;;
53881;SDS011;39794;55.782;37.452;2023-05-29T14:51:42;1.40;;;1.00;;
53881;SDS011;39794;55.782;37.452;2023-05-29T14:54:14;3.03;;;0.77;;
53881;SDS011;39794;55.782;37.452;2023-05-29T14:56:42;3.65;;;1.35;;
53881;SDS011;39794;55.782;37.452;2023-05-29T14:59:17;2.53;;;1.02;;
53881;SDS011;39794;55.782;37.452;2023-05-29T15:01:48;4.00;;;1.30;;
53881;SDS011;39794;55.782;37.452;2023-05-29T15:04:17;1.15;;;1.00;;
53881;SDS011;39794;55.782;37.452;2023-05-29T15:06:52;2.30;;;1.20;;
53881;SDS011;39794;55.782;37.452;2023-05-29T15:09:36;1.00;;;0.80;;
53881;SDS011;39794;55.782;37.452;2023-05-29T15:12:05;6.90;;;1.10;;
53881;SDS011;39794;55.782;37.452;2023-05-29T15:14:34;2.80;;;0.70;;
53881;SDS011;39794;55.782;37.452;2023-05-29T15:17:02;2.75;;;1.27;;